sensor_id;sensor_type;location;lat;lon;timestamp;temperature;humidity
64501;DHT22;50874;24.150;-110.320;2023-04-10T00:01:58;31.90;38.20
64501;DHT22;50874;24.150;-110.320;2023-04-10T00:04:25;31.20;38.20
64501;DHT22;50874;24.150;-110.320;2023-04-10T00:06:51;30.90;38.60
64501;DHT22;50874;24.150;-110.320;2023-04-10T00:09:18;30.80;38.70
64501;DHT22;50874;24.150;-110.320;2023-04-10T00:11:44;30.60;38.10
64501;DHT22;50874;24.150;-110.320;2023-04-10T00:14:11;30.40;38.50
64501;DHT22;50874;24.150;-110.320;2023-04-10T00:16:37;30.40;38.70
64501;DHT22;50874;24.150;-110.320;2023-04-10T00:19:03;30.30;38.50
64501;DHT22;50874;24.150;-110.320;2023-04-10T00:21:30;30.30;37.90
64501;DHT22;50874;24.150;-110.320;2023-04-10T00:23:56;30.50;38.50
64501;DHT22;50874;24.150;-110.320;2023-04-10T00:26:23;30.80;38.30
64501;DHT22;50874;24.150;-110.320;2023-04-10T00:28:51;30.80;37.80
64501;DHT22;50874;24.150;-110.320;2023-04-10T00:31:17;30.50;37.60
64501;DHT22;50874;24.150;-110.320;2023-04-10T00:33:44;30.30;38.40
64501;DHT22;50874;24.150;-110.320;2023-04-10T00:36:10;30.30;37.90
64501;DHT22;50874;24.150;-110.320;2023-04-10T00:38:36;30.30;38.20
64501;DHT22;50874;24.150;-110.320;2023-04-10T00:41:03;30.10;38.20
64501;DHT22;50874;24.150;-110.320;2023-04-10T00:43:30;29.90;38.20
64501;DHT22;50874;24.150;-110.320;2023-04-10T00:45:57;29.90;38.60
64501;DHT22;50874;24.150;-110.320;2023-04-10T00:48:24;29.80;38.80
64501;DHT22;50874;24.150;-110.320;2023-04-10T00:50:50;29.60;38.10
64501;DHT22;50874;24.150;-110.320;2023-04-10T00:53:17;29.50;38.90
64501;DHT22;50874;24.150;-110.320;2023-04-10T00:55:44;29.30;37.60
64501;DHT22;50874;24.150;-110.320;2023-04-10T00:58:10;29.40;38.20
64501;DHT22;50874;24.150;-110.320;2023-04-10T01:00:39;29.30;38.20
64501;DHT22;50874;24.150;-110.320;2023-04-10T01:03:07;29.20;38.30
64501;DHT22;50874;24.150;-110.320;2023-04-10T01:05:50;28.90;37.90
64501;DHT22;50874;24.150;-110.320;2023-04-10T01:11:38;28.60;38.80
64501;DHT22;50874;24.150;-110.320;2023-04-10T01:14:21;28.60;39.10
64501;DHT22;50874;24.150;-110.320;2023-04-10T01:22:04;28.30;39.00
64501;DHT22;50874;24.150;-110.320;2023-04-10T01:27:11;28.10;39.10
64501;DHT22;50874;24.150;-110.320;2023-04-10T01:29:48;28.00;39.80
64501;DHT22;50874;24.150;-110.320;2023-04-10T01:32:20;27.90;38.70
64501;DHT22;50874;24.150;-110.320;2023-04-10T01:34:51;27.80;39.00
64501;DHT22;50874;24.150;-110.320;2023-04-10T01:37:29;27.60;38.80
64501;DHT22;50874;24.150;-110.320;2023-04-10T01:40:16;27.40;38.90
64501;DHT22;50874;24.150;-110.320;2023-04-10T01:42:47;27.30;39.30
64501;DHT22;50874;24.150;-110.320;2023-04-10T01:45:19;27.10;39.50
64501;DHT22;50874;24.150;-110.320;2023-04-10T01:47:46;27.00;39.70
64501;DHT22;50874;24.150;-110.320;2023-04-10T01:50:13;26.90;39.80
64501;DHT22;50874;24.150;-110.320;2023-04-10T01:52:41;26.90;40.10
64501;DHT22;50874;24.150;-110.320;2023-04-10T01:55:08;26.80;40.30
64501;DHT22;50874;24.150;-110.320;2023-04-10T01:57:35;26.80;40.50
64501;DHT22;50874;24.150;-110.320;2023-04-10T02:00:02;26.80;40.90
64501;DHT22;50874;24.150;-110.320;2023-04-10T02:02:31;26.70;40.70
64501;DHT22;50874;24.150;-110.320;2023-04-10T02:04:57;26.70;41.00
64501;DHT22;50874;24.150;-110.320;2023-04-10T02:07:43;26.70;40.90
64501;DHT22;50874;24.150;-110.320;2023-04-10T02:10:21;26.70;41.20
64501;DHT22;50874;24.150;-110.320;2023-04-10T02:12:54;26.60;54.90
64501;DHT22;50874;24.150;-110.320;2023-04-10T02:15:26;26.60;64.00
64501;DHT22;50874;24.150;-110.320;2023-04-10T02:17:58;26.30;67.40
64501;DHT22;50874;24.150;-110.320;2023-04-10T02:20:25;26.10;69.60
64501;DHT22;50874;24.150;-110.320;2023-04-10T02:22:53;26.00;70.70
64501;DHT22;50874;24.150;-110.320;2023-04-10T02:25:20;25.80;71.70
64501;DHT22;50874;24.150;-110.320;2023-04-10T02:27:47;25.70;71.30
64501;DHT22;50874;24.150;-110.320;2023-04-10T02:30:13;25.60;71.90
64501;DHT22;50874;24.150;-110.320;2023-04-10T02:32:39;25.60;72.20
64501;DHT22;50874;24.150;-110.320;2023-04-10T02:35:07;25.50;72.50
64501;DHT22;50874;24.150;-110.320;2023-04-10T02:37:33;25.40;72.30
64501;DHT22;50874;24.150;-110.320;2023-04-10T02:40:01;25.50;72.20
64501;DHT22;50874;24.150;-110.320;2023-04-10T02:42:27;25.50;72.30
64501;DHT22;50874;24.150;-110.320;2023-04-10T02:44:54;25.50;72.40
64501;DHT22;50874;24.150;-110.320;2023-04-10T02:47:21;25.50;72.60
64501;DHT22;50874;24.150;-110.320;2023-04-10T02:49:48;25.40;73.10
64501;DHT22;50874;24.150;-110.320;2023-04-10T02:52:15;25.30;73.50
64501;DHT22;50874;24.150;-110.320;2023-04-10T02:54:42;25.20;73.20
64501;DHT22;50874;24.150;-110.320;2023-04-10T02:57:08;25.20;73.40
64501;DHT22;50874;24.150;-110.320;2023-04-10T02:59:35;25.20;73.90
64501;DHT22;50874;24.150;-110.320;2023-04-10T03:02:02;25.10;73.90
64501;DHT22;50874;24.150;-110.320;2023-04-10T03:04:31;25.10;74.20
64501;DHT22;50874;24.150;-110.320;2023-04-10T03:06:57;25.00;74.60
64501;DHT22;50874;24.150;-110.320;2023-04-10T03:09:24;25.00;75.00
64501;DHT22;50874;24.150;-110.320;2023-04-10T03:11:51;24.90;75.00
64501;DHT22;50874;24.150;-110.320;2023-04-10T03:14:17;24.80;75.00
64501;DHT22;50874;24.150;-110.320;2023-04-10T03:16:44;24.80;75.40
64501;DHT22;50874;24.150;-110.320;2023-04-10T03:19:13;24.70;75.10
64501;DHT22;50874;24.150;-110.320;2023-04-10T03:21:39;24.60;75.00
64501;DHT22;50874;24.150;-110.320;2023-04-10T03:24:06;24.50;75.20
64501;DHT22;50874;24.150;-110.320;2023-04-10T03:26:32;24.40;75.40
64501;DHT22;50874;24.150;-110.320;2023-04-10T03:28:59;24.40;75.60
64501;DHT22;50874;24.150;-110.320;2023-04-10T03:31:26;24.40;75.80
64501;DHT22;50874;24.150;-110.320;2023-04-10T03:33:53;24.30;76.00
64501;DHT22;50874;24.150;-110.320;2023-04-10T03:36:19;24.30;76.20
64501;DHT22;50874;24.150;-110.320;2023-04-10T03:38:45;24.30;76.60
64501;DHT22;50874;24.150;-110.320;2023-04-10T03:41:12;24.30;77.00
64501;DHT22;50874;24.150;-110.320;2023-04-10T03:43:38;24.20;77.10
64501;DHT22;50874;24.150;-110.320;2023-04-10T03:46:05;24.20;78.60
64501;DHT22;50874;24.150;-110.320;2023-04-10T03:48:32;24.10;78.90
64501;DHT22;50874;24.150;-110.320;2023-04-10T03:50:58;24.10;78.50
64501;DHT22;50874;24.150;-110.320;2023-04-10T03:53:25;24.10;79.80
64501;DHT22;50874;24.150;-110.320;2023-04-10T03:55:51;24.10;79.90
64501;DHT22;50874;24.150;-110.320;2023-04-10T03:58:18;24.10;80.40
64501;DHT22;50874;24.150;-110.320;2023-04-10T04:00:45;24.00;80.30
64501;DHT22;50874;24.150;-110.320;2023-04-10T04:03:12;24.10;80.50
64501;DHT22;50874;24.150;-110.320;2023-04-10T04:05:38;24.10;80.70
64501;DHT22;50874;24.150;-110.320;2023-04-10T04:08:05;24.10;80.40
64501;DHT22;50874;24.150;-110.320;2023-04-10T04:10:32;24.00;80.20
64501;DHT22;50874;24.150;-110.320;2023-04-10T04:12:58;24.00;80.10
64501;DHT22;50874;24.150;-110.320;2023-04-10T04:15:25;23.90;80.00
64501;DHT22;50874;24.150;-110.320;2023-04-10T04:17:51;24.00;78.90
64501;DHT22;50874;24.150;-110.320;2023-04-10T04:20:18;23.90;78.60
64501;DHT22;50874;24.150;-110.320;2023-04-10T04:22:45;23.80;76.30
64501;DHT22;50874;24.150;-110.320;2023-04-10T04:25:12;23.70;73.40
64501;DHT22;50874;24.150;-110.320;2023-04-10T04:27:38;23.60;72.90
64501;DHT22;50874;24.150;-110.320;2023-04-10T04:30:05;23.50;71.70
64501;DHT22;50874;24.150;-110.320;2023-04-10T04:32:32;23.40;71.40
64501;DHT22;50874;24.150;-110.320;2023-04-10T04:34:58;23.30;71.70
64501;DHT22;50874;24.150;-110.320;2023-04-10T04:37:25;23.20;71.70
64501;DHT22;50874;24.150;-110.320;2023-04-10T04:39:51;23.00;70.80
64501;DHT22;50874;24.150;-110.320;2023-04-10T04:42:18;22.90;70.70
64501;DHT22;50874;24.150;-110.320;2023-04-10T04:44:44;22.80;69.60
64501;DHT22;50874;24.150;-110.320;2023-04-10T04:47:11;22.70;69.20
64501;DHT22;50874;24.150;-110.320;2023-04-10T04:49:37;22.50;65.40
64501;DHT22;50874;24.150;-110.320;2023-04-10T04:52:04;22.30;62.30
64501;DHT22;50874;24.150;-110.320;2023-04-10T04:54:30;22.00;60.70
64501;DHT22;50874;24.150;-110.320;2023-04-10T04:56:57;21.90;59.60
64501;DHT22;50874;24.150;-110.320;2023-04-10T04:59:23;21.90;59.40
64501;DHT22;50874;24.150;-110.320;2023-04-10T05:01:49;21.80;59.20
64501;DHT22;50874;24.150;-110.320;2023-04-10T05:04:16;21.90;59.00
64501;DHT22;50874;24.150;-110.320;2023-04-10T05:06:42;21.90;58.60
64501;DHT22;50874;24.150;-110.320;2023-04-10T05:09:09;21.80;58.40
64501;DHT22;50874;24.150;-110.320;2023-04-10T05:11:35;21.90;58.50
64501;DHT22;50874;24.150;-110.320;2023-04-10T05:14:01;21.90;57.80
64501;DHT22;50874;24.150;-110.320;2023-04-10T05:16:28;22.00;57.40
64501;DHT22;50874;24.150;-110.320;2023-04-10T05:18:54;21.90;57.20
64501;DHT22;50874;24.150;-110.320;2023-04-10T05:21:21;21.80;56.60
64501;DHT22;50874;24.150;-110.320;2023-04-10T05:23:47;21.70;56.40
64501;DHT22;50874;24.150;-110.320;2023-04-10T05:26:14;21.70;56.60
64501;DHT22;50874;24.150;-110.320;2023-04-10T05:28:40;21.60;57.50
64501;DHT22;50874;24.150;-110.320;2023-04-10T05:31:07;21.50;58.00
64501;DHT22;50874;24.150;-110.320;2023-04-10T05:33:33;21.40;58.70
64501;DHT22;50874;24.150;-110.320;2023-04-10T05:36:00;21.40;59.60
64501;DHT22;50874;24.150;-110.320;2023-04-10T05:38:27;21.40;59.90
64501;DHT22;50874;24.150;-110.320;2023-04-10T05:40:53;21.40;60.80
64501;DHT22;50874;24.150;-110.320;2023-04-10T05:43:20;21.40;61.30
64501;DHT22;50874;24.150;-110.320;2023-04-10T05:45:47;21.40;61.60
64501;DHT22;50874;24.150;-110.320;2023-04-10T05:48:13;21.40;62.30
64501;DHT22;50874;24.150;-110.320;2023-04-10T05:50:40;21.30;62.90
64501;DHT22;50874;24.150;-110.320;2023-04-10T05:53:09;21.30;63.60
64501;DHT22;50874;24.150;-110.320;2023-04-10T05:55:36;21.30;64.10
64501;DHT22;50874;24.150;-110.320;2023-04-10T05:58:02;21.30;64.20
64501;DHT22;50874;24.150;-110.320;2023-04-10T06:00:28;21.40;64.10
64501;DHT22;50874;24.150;-110.320;2023-04-10T06:02:55;21.40;64.00
64501;DHT22;50874;24.150;-110.320;2023-04-10T06:05:21;21.40;63.70
64501;DHT22;50874;24.150;-110.320;2023-04-10T06:07:48;21.40;63.50
64501;DHT22;50874;24.150;-110.320;2023-04-10T06:10:14;21.40;63.10
64501;DHT22;50874;24.150;-110.320;2023-04-10T06:12:41;21.40;62.70
64501;DHT22;50874;24.150;-110.320;2023-04-10T06:15:08;21.30;62.70
64501;DHT22;50874;24.150;-110.320;2023-04-10T06:17:34;21.30;60.90
64501;DHT22;50874;24.150;-110.320;2023-04-10T06:20:02;21.20;59.40
64501;DHT22;50874;24.150;-110.320;2023-04-10T06:22:29;21.10;58.80
64501;DHT22;50874;24.150;-110.320;2023-04-10T06:24:57;21.10;57.60
64501;DHT22;50874;24.150;-110.320;2023-04-10T06:27:23;21.10;57.30
64501;DHT22;50874;24.150;-110.320;2023-04-10T06:29:50;21.00;56.80
64501;DHT22;50874;24.150;-110.320;2023-04-10T06:32:17;21.00;56.30
64501;DHT22;50874;24.150;-110.320;2023-04-10T06:34:43;20.90;55.80
64501;DHT22;50874;24.150;-110.320;2023-04-10T06:37:11;20.70;55.00
64501;DHT22;50874;24.150;-110.320;2023-04-10T06:39:40;20.70;54.00
64501;DHT22;50874;24.150;-110.320;2023-04-10T06:42:07;20.70;53.50
64501;DHT22;50874;24.150;-110.320;2023-04-10T06:44:33;20.70;52.80
64501;DHT22;50874;24.150;-110.320;2023-04-10T06:47:00;20.60;52.40
64501;DHT22;50874;24.150;-110.320;2023-04-10T06:49:26;20.60;52.20
64501;DHT22;50874;24.150;-110.320;2023-04-10T06:51:53;20.60;52.00
64501;DHT22;50874;24.150;-110.320;2023-04-10T06:54:19;20.60;52.20
64501;DHT22;50874;24.150;-110.320;2023-04-10T06:56:46;20.60;52.00
64501;DHT22;50874;24.150;-110.320;2023-04-10T06:59:12;20.60;51.90
64501;DHT22;50874;24.150;-110.320;2023-04-10T07:01:39;20.60;51.70
64501;DHT22;50874;24.150;-110.320;2023-04-10T07:04:05;20.50;51.50
64501;DHT22;50874;24.150;-110.320;2023-04-10T07:06:32;20.50;51.60
64501;DHT22;50874;24.150;-110.320;2023-04-10T07:08:58;20.50;51.50
64501;DHT22;50874;24.150;-110.320;2023-04-10T07:11:24;20.40;51.60
64501;DHT22;50874;24.150;-110.320;2023-04-10T07:13:51;20.40;51.80
64501;DHT22;50874;24.150;-110.320;2023-04-10T07:16:18;20.40;51.70
64501;DHT22;50874;24.150;-110.320;2023-04-10T07:18:44;20.30;51.60
64501;DHT22;50874;24.150;-110.320;2023-04-10T07:21:11;20.30;51.80
64501;DHT22;50874;24.150;-110.320;2023-04-10T07:23:38;20.20;51.80
64501;DHT22;50874;24.150;-110.320;2023-04-10T07:26:04;20.20;51.90
64501;DHT22;50874;24.150;-110.320;2023-04-10T07:28:31;20.20;51.90
64501;DHT22;50874;24.150;-110.320;2023-04-10T07:30:58;20.10;51.80
64501;DHT22;50874;24.150;-110.320;2023-04-10T07:33:24;20.10;51.80
64501;DHT22;50874;24.150;-110.320;2023-04-10T07:35:51;20.10;51.80
64501;DHT22;50874;24.150;-110.320;2023-04-10T07:38:18;20.10;51.70
64501;DHT22;50874;24.150;-110.320;2023-04-10T07:40:46;20.10;51.80
64501;DHT22;50874;24.150;-110.320;2023-04-10T07:43:12;20.10;51.70
64501;DHT22;50874;24.150;-110.320;2023-04-10T07:45:40;20.10;51.80
64501;DHT22;50874;24.150;-110.320;2023-04-10T07:48:06;20.10;51.80
64501;DHT22;50874;24.150;-110.320;2023-04-10T07:50:32;20.10;51.80
64501;DHT22;50874;24.150;-110.320;2023-04-10T07:53:00;20.10;52.10
64501;DHT22;50874;24.150;-110.320;2023-04-10T07:55:28;20.10;52.20
64501;DHT22;50874;24.150;-110.320;2023-04-10T07:57:55;20.10;52.40
64501;DHT22;50874;24.150;-110.320;2023-04-10T08:00:21;20.10;52.00
64501;DHT22;50874;24.150;-110.320;2023-04-10T08:02:47;20.10;52.10
64501;DHT22;50874;24.150;-110.320;2023-04-10T08:05:14;20.10;52.10
64501;DHT22;50874;24.150;-110.320;2023-04-10T08:07:40;20.10;52.00
64501;DHT22;50874;24.150;-110.320;2023-04-10T08:10:07;20.20;52.00
64501;DHT22;50874;24.150;-110.320;2023-04-10T08:12:34;20.10;52.00
64501;DHT22;50874;24.150;-110.320;2023-04-10T08:15:01;20.10;52.10
64501;DHT22;50874;24.150;-110.320;2023-04-10T08:17:27;20.10;52.10
64501;DHT22;50874;24.150;-110.320;2023-04-10T08:19:53;20.10;52.50
64501;DHT22;50874;24.150;-110.320;2023-04-10T08:22:20;20.10;52.70
64501;DHT22;50874;24.150;-110.320;2023-04-10T08:24:46;20.00;52.90
64501;DHT22;50874;24.150;-110.320;2023-04-10T08:27:13;20.00;52.80
64501;DHT22;50874;24.150;-110.320;2023-04-10T08:29:41;19.90;52.70
64501;DHT22;50874;24.150;-110.320;2023-04-10T08:32:08;19.90;52.70
64501;DHT22;50874;24.150;-110.320;2023-04-10T08:34:34;19.80;52.90
64501;DHT22;50874;24.150;-110.320;2023-04-10T08:37:05;19.80;53.00
64501;DHT22;50874;24.150;-110.320;2023-04-10T08:39:34;19.80;53.20
64501;DHT22;50874;24.150;-110.320;2023-04-10T08:42:01;19.70;53.40
64501;DHT22;50874;24.150;-110.320;2023-04-10T08:44:28;19.70;53.50
64501;DHT22;50874;24.150;-110.320;2023-04-10T08:46:58;19.70;53.70
64501;DHT22;50874;24.150;-110.320;2023-04-10T08:50:03;19.60;53.90
64501;DHT22;50874;24.150;-110.320;2023-04-10T08:52:23;19.50;54.20
64501;DHT22;50874;24.150;-110.320;2023-04-10T08:54:53;19.50;54.70
64501;DHT22;50874;24.150;-110.320;2023-04-10T08:57:21;19.40;54.90
64501;DHT22;50874;24.150;-110.320;2023-04-10T08:59:49;19.40;55.30
64501;DHT22;50874;24.150;-110.320;2023-04-10T09:02:17;19.30;55.60
64501;DHT22;50874;24.150;-110.320;2023-04-10T09:04:47;19.20;56.20
64501;DHT22;50874;24.150;-110.320;2023-04-10T09:07:17;19.20;57.50
64501;DHT22;50874;24.150;-110.320;2023-04-10T09:09:43;19.10;58.80
64501;DHT22;50874;24.150;-110.320;2023-04-10T09:12:12;19.00;58.80
64501;DHT22;50874;24.150;-110.320;2023-04-10T09:14:39;18.90;59.90
64501;DHT22;50874;24.150;-110.320;2023-04-10T09:17:20;18.80;60.30
64501;DHT22;50874;24.150;-110.320;2023-04-10T09:22:14;18.60;60.40
64501;DHT22;50874;24.150;-110.320;2023-04-10T09:24:44;18.60;60.90
64501;DHT22;50874;24.150;-110.320;2023-04-10T09:27:27;18.50;61.30
64501;DHT22;50874;24.150;-110.320;2023-04-10T09:29:54;18.50;61.50
64501;DHT22;50874;24.150;-110.320;2023-04-10T09:32:43;18.40;61.60
64501;DHT22;50874;24.150;-110.320;2023-04-10T09:35:12;18.40;62.00
64501;DHT22;50874;24.150;-110.320;2023-04-10T09:37:39;18.30;61.80
64501;DHT22;50874;24.150;-110.320;2023-04-10T09:40:22;18.40;62.00
64501;DHT22;50874;24.150;-110.320;2023-04-10T09:42:52;18.30;62.00
64501;DHT22;50874;24.150;-110.320;2023-04-10T09:45:21;18.30;62.20
64501;DHT22;50874;24.150;-110.320;2023-04-10T09:48:14;18.30;62.70
64501;DHT22;50874;24.150;-110.320;2023-04-10T09:50:41;18.20;62.90
64501;DHT22;50874;24.150;-110.320;2023-04-10T09:53:16;18.20;63.20
64501;DHT22;50874;24.150;-110.320;2023-04-10T09:55:45;18.20;63.50
64501;DHT22;50874;24.150;-110.320;2023-04-10T09:58:13;18.20;63.50
64501;DHT22;50874;24.150;-110.320;2023-04-10T10:00:41;18.20;63.60
64501;DHT22;50874;24.150;-110.320;2023-04-10T10:03:13;18.10;63.30
64501;DHT22;50874;24.150;-110.320;2023-04-10T10:05:42;18.00;62.80
64501;DHT22;50874;24.150;-110.320;2023-04-10T10:08:10;18.00;62.40
64501;DHT22;50874;24.150;-110.320;2023-04-10T10:10:41;17.90;59.50
64501;DHT22;50874;24.150;-110.320;2023-04-10T10:13:15;17.90;58.60
64501;DHT22;50874;24.150;-110.320;2023-04-10T10:16:12;17.90;58.50
64501;DHT22;50874;24.150;-110.320;2023-04-10T10:21:13;17.80;58.40
64501;DHT22;50874;24.150;-110.320;2023-04-10T10:23:42;17.80;58.50
64501;DHT22;50874;24.150;-110.320;2023-04-10T10:26:09;17.80;58.70
64501;DHT22;50874;24.150;-110.320;2023-04-10T10:28:37;17.80;58.30
64501;DHT22;50874;24.150;-110.320;2023-04-10T10:31:05;17.80;58.30
64501;DHT22;50874;24.150;-110.320;2023-04-10T10:33:35;17.80;58.50
64501;DHT22;50874;24.150;-110.320;2023-04-10T10:36:03;17.70;58.10
64501;DHT22;50874;24.150;-110.320;2023-04-10T10:38:30;17.60;58.20
64501;DHT22;50874;24.150;-110.320;2023-04-10T10:46:37;17.60;58.60
64501;DHT22;50874;24.150;-110.320;2023-04-10T10:49:06;17.60;58.90
64501;DHT22;50874;24.150;-110.320;2023-04-10T10:51:48;17.60;58.90
64501;DHT22;50874;24.150;-110.320;2023-04-10T10:54:34;17.50;58.90
64501;DHT22;50874;24.150;-110.320;2023-04-10T10:57:01;17.50;59.20
64501;DHT22;50874;24.150;-110.320;2023-04-10T11:02:14;17.20;59.20
64501;DHT22;50874;24.150;-110.320;2023-04-10T11:04:45;17.10;59.30
64501;DHT22;50874;24.150;-110.320;2023-04-10T11:07:12;17.10;59.70
64501;DHT22;50874;24.150;-110.320;2023-04-10T11:12:14;17.00;60.50
64501;DHT22;50874;24.150;-110.320;2023-04-10T11:14:44;17.00;61.00
64501;DHT22;50874;24.150;-110.320;2023-04-10T11:17:46;17.00;61.30
64501;DHT22;50874;24.150;-110.320;2023-04-10T11:20:13;17.00;61.70
64501;DHT22;50874;24.150;-110.320;2023-04-10T11:23:08;16.90;62.00
64501;DHT22;50874;24.150;-110.320;2023-04-10T11:25:51;16.90;62.30
64501;DHT22;50874;24.150;-110.320;2023-04-10T11:28:37;16.80;62.70
64501;DHT22;50874;24.150;-110.320;2023-04-10T11:31:18;16.80;63.00
64501;DHT22;50874;24.150;-110.320;2023-04-10T11:33:47;16.70;63.60
64501;DHT22;50874;24.150;-110.320;2023-04-10T11:36:16;16.70;63.80
64501;DHT22;50874;24.150;-110.320;2023-04-10T11:39:02;16.60;64.10
64501;DHT22;50874;24.150;-110.320;2023-04-10T11:41:34;16.60;64.40
64501;DHT22;50874;24.150;-110.320;2023-04-10T11:44:03;16.60;64.70
64501;DHT22;50874;24.150;-110.320;2023-04-10T11:46:34;16.60;64.80
64501;DHT22;50874;24.150;-110.320;2023-04-10T11:49:03;16.60;65.20
64501;DHT22;50874;24.150;-110.320;2023-04-10T11:51:30;16.50;65.60
64501;DHT22;50874;24.150;-110.320;2023-04-10T11:54:20;16.50;66.50
64501;DHT22;50874;24.150;-110.320;2023-04-10T11:56:58;16.50;66.80
64501;DHT22;50874;24.150;-110.320;2023-04-10T11:59:26;16.50;66.90
64501;DHT22;50874;24.150;-110.320;2023-04-10T12:02:02;16.40;66.60
64501;DHT22;50874;24.150;-110.320;2023-04-10T12:04:29;16.40;66.40
64501;DHT22;50874;24.150;-110.320;2023-04-10T12:06:56;16.40;66.40
64501;DHT22;50874;24.150;-110.320;2023-04-10T12:09:23;16.30;66.60
64501;DHT22;50874;24.150;-110.320;2023-04-10T12:11:59;16.20;66.80
64501;DHT22;50874;24.150;-110.320;2023-04-10T12:14:33;16.20;67.60
64501;DHT22;50874;24.150;-110.320;2023-04-10T12:17:01;16.20;67.10
64501;DHT22;50874;24.150;-110.320;2023-04-10T12:19:28;16.10;67.00
64501;DHT22;50874;24.150;-110.320;2023-04-10T12:21:57;16.10;67.10
64501;DHT22;50874;24.150;-110.320;2023-04-10T12:24:46;16.10;67.60
64501;DHT22;50874;24.150;-110.320;2023-04-10T12:27:21;16.10;67.80
64501;DHT22;50874;24.150;-110.320;2023-04-10T12:29:53;16.00;67.70
64501;DHT22;50874;24.150;-110.320;2023-04-10T12:32:20;15.90;68.00
64501;DHT22;50874;24.150;-110.320;2023-04-10T12:37:17;15.80;68.20
64501;DHT22;50874;24.150;-110.320;2023-04-10T12:39:44;15.70;68.20
64501;DHT22;50874;24.150;-110.320;2023-04-10T12:42:18;15.70;68.40
64501;DHT22;50874;24.150;-110.320;2023-04-10T12:44:55;15.70;68.60
64501;DHT22;50874;24.150;-110.320;2023-04-10T12:47:23;15.60;68.60
64501;DHT22;50874;24.150;-110.320;2023-04-10T12:52:33;15.50;68.90
64501;DHT22;50874;24.150;-110.320;2023-04-10T12:55:17;15.50;69.10
64501;DHT22;50874;24.150;-110.320;2023-04-10T12:57:46;15.50;69.20
64501;DHT22;50874;24.150;-110.320;2023-04-10T13:00:17;15.50;69.40
64501;DHT22;50874;24.150;-110.320;2023-04-10T13:02:45;15.50;69.50
64501;DHT22;50874;24.150;-110.320;2023-04-10T13:05:11;15.50;69.70
64501;DHT22;50874;24.150;-110.320;2023-04-10T13:07:38;15.40;69.90
64501;DHT22;50874;24.150;-110.320;2023-04-10T13:10:06;15.40;70.20
64501;DHT22;50874;24.150;-110.320;2023-04-10T13:12:34;15.40;70.00
64501;DHT22;50874;24.150;-110.320;2023-04-10T13:15:02;15.40;70.30
64501;DHT22;50874;24.150;-110.320;2023-04-10T13:17:29;15.40;69.80
64501;DHT22;50874;24.150;-110.320;2023-04-10T13:19:55;15.40;69.20
64501;DHT22;50874;24.150;-110.320;2023-04-10T13:22:22;15.50;69.10
64501;DHT22;50874;24.150;-110.320;2023-04-10T13:24:48;15.50;68.90
64501;DHT22;50874;24.150;-110.320;2023-04-10T13:27:15;15.60;68.40
64501;DHT22;50874;24.150;-110.320;2023-04-10T13:29:42;15.80;68.70
64501;DHT22;50874;24.150;-110.320;2023-04-10T13:32:08;15.90;68.60
64501;DHT22;50874;24.150;-110.320;2023-04-10T13:34:35;15.90;68.70
64501;DHT22;50874;24.150;-110.320;2023-04-10T13:37:02;16.00;68.60
64501;DHT22;50874;24.150;-110.320;2023-04-10T13:39:29;16.10;69.50
64501;DHT22;50874;24.150;-110.320;2023-04-10T13:41:57;16.20;70.00
64501;DHT22;50874;24.150;-110.320;2023-04-10T13:44:23;16.30;70.00
64501;DHT22;50874;24.150;-110.320;2023-04-10T13:46:50;16.40;69.90
64501;DHT22;50874;24.150;-110.320;2023-04-10T13:49:16;16.60;69.80
64501;DHT22;50874;24.150;-110.320;2023-04-10T13:51:45;16.80;69.30
64501;DHT22;50874;24.150;-110.320;2023-04-10T13:54:12;16.90;68.90
64501;DHT22;50874;24.150;-110.320;2023-04-10T13:56:39;17.10;68.70
64501;DHT22;50874;24.150;-110.320;2023-04-10T13:59:06;17.30;68.50
64501;DHT22;50874;24.150;-110.320;2023-04-10T14:01:32;17.60;68.10
64501;DHT22;50874;24.150;-110.320;2023-04-10T14:03:59;18.10;67.50
64501;DHT22;50874;24.150;-110.320;2023-04-10T14:06:25;18.70;65.90
64501;DHT22;50874;24.150;-110.320;2023-04-10T14:08:52;19.30;64.40
64501;DHT22;50874;24.150;-110.320;2023-04-10T14:11:19;19.70;63.10
64501;DHT22;50874;24.150;-110.320;2023-04-10T14:13:46;19.90;62.60
64501;DHT22;50874;24.150;-110.320;2023-04-10T14:16:13;19.90;62.70
64501;DHT22;50874;24.150;-110.320;2023-04-10T14:18:39;19.90;63.50
64501;DHT22;50874;24.150;-110.320;2023-04-10T14:21:06;19.80;64.80
64501;DHT22;50874;24.150;-110.320;2023-04-10T14:23:32;19.90;65.50
64501;DHT22;50874;24.150;-110.320;2023-04-10T14:25:59;20.10;67.00
64501;DHT22;50874;24.150;-110.320;2023-04-10T14:28:25;20.30;67.60
64501;DHT22;50874;24.150;-110.320;2023-04-10T14:30:52;21.00;67.50
64501;DHT22;50874;24.150;-110.320;2023-04-10T14:33:18;21.80;67.00
64501;DHT22;50874;24.150;-110.320;2023-04-10T14:35:45;22.60;67.10
64501;DHT22;50874;24.150;-110.320;2023-04-10T14:38:12;23.40;67.60
64501;DHT22;50874;24.150;-110.320;2023-04-10T14:40:38;24.00;67.00
64501;DHT22;50874;24.150;-110.320;2023-04-10T14:43:08;24.40;66.50
64501;DHT22;50874;24.150;-110.320;2023-04-10T14:45:34;24.80;66.60
64501;DHT22;50874;24.150;-110.320;2023-04-10T14:48:01;25.40;65.20
64501;DHT22;50874;24.150;-110.320;2023-04-10T14:50:30;25.80;63.80
64501;DHT22;50874;24.150;-110.320;2023-04-10T14:52:56;26.20;63.70
64501;DHT22;50874;24.150;-110.320;2023-04-10T14:55:25;26.50;63.70
64501;DHT22;50874;24.150;-110.320;2023-04-10T14:57:51;26.90;62.50
64501;DHT22;50874;24.150;-110.320;2023-04-10T15:00:18;27.10;62.00
64501;DHT22;50874;24.150;-110.320;2023-04-10T15:02:45;27.50;61.70
64501;DHT22;50874;24.150;-110.320;2023-04-10T15:05:11;27.80;60.30
64501;DHT22;50874;24.150;-110.320;2023-04-10T15:07:38;28.40;59.80
64501;DHT22;50874;24.150;-110.320;2023-04-10T15:10:04;28.60;59.10
64501;DHT22;50874;24.150;-110.320;2023-04-10T15:12:31;28.60;58.40
64501;DHT22;50874;24.150;-110.320;2023-04-10T15:14:57;28.70;58.50
64501;DHT22;50874;24.150;-110.320;2023-04-10T15:17:24;28.70;58.60
64501;DHT22;50874;24.150;-110.320;2023-04-10T15:19:50;29.00;58.20
64501;DHT22;50874;24.150;-110.320;2023-04-10T15:22:17;29.20;59.00
64501;DHT22;50874;24.150;-110.320;2023-04-10T15:24:43;29.60;57.80
64501;DHT22;50874;24.150;-110.320;2023-04-10T15:27:10;29.80;57.60
64501;DHT22;50874;24.150;-110.320;2023-04-10T15:29:37;30.30;56.90